EWG96D EDDH-EDDM
Flight info
| Callsign | EWG96D |
|---|---|
| Flight time | 1h 9m |
| Altitude | 29000 |
| Route | AMLUH3B/23 AMLUH M852 DENIX DCT ZUCKA DCT SODRO T703 LULAR T105 LANDU LANDU2A |
| Aircraft | A319/M-SDE3FGHIRWY/LB1 |
Departure
| Time | 2026-05-01 10:58 |
|---|---|
| Airport | Hamburg Helmut Schmidt Airport (EDDH) |
Arrival
| Time | 2026-05-01 12:08 |
|---|---|
| Airport | Munich Airport (EDDM) |
| Time | Latitude | Longitude | Altitude | Speed | Heading |
|---|---|---|---|---|---|
| 2026-05-01 10:44 | 53.62808 | 10.00247 | 51 ft | 0 kts | 62° |
| 2026-05-01 10:50 | 53.62801 | 10.00225 | 48 ft | 4 kts | 59° |
| 2026-05-01 10:50 | 53.62786 | 10.00187 | 50 ft | 4 kts | 50° |
| 2026-05-01 10:50 | 53.62767 | 10.00157 | 50 ft | 4 kts | 23° |
| 2026-05-01 10:50 | 53.62748 | 10.00153 | 50 ft | 1 kts | 332° |
| 2026-05-01 10:53 | 53.62750 | 10.00151 | 50 ft | 1 kts | 332° |
| 2026-05-01 10:53 | 53.62763 | 10.00140 | 50 ft | 3 kts | 332° |
| 2026-05-01 10:54 | 53.62791 | 10.00116 | 48 ft | 6 kts | 332° |
| 2026-05-01 10:54 | 53.62830 | 10.00082 | 49 ft | 7 kts | 334° |
| 2026-05-01 10:54 | 53.62884 | 10.00038 | 50 ft | 10 kts | 334° |
| 2026-05-01 10:54 | 53.62956 | 10.00061 | 47 ft | 12 kts | 32° |
| 2026-05-01 10:55 | 53.63034 | 10.00147 | 51 ft | 13 kts | 33° |
| 2026-05-01 10:55 | 53.63129 | 10.00192 | 51 ft | 16 kts | 356° |
| 2026-05-01 10:55 | 53.63235 | 10.00180 | 51 ft | 8 kts | 356° |
| 2026-05-01 10:55 | 53.63302 | 10.00172 | 51 ft | 11 kts | 356° |
| 2026-05-01 10:56 | 53.63387 | 10.00161 | 47 ft | 14 kts | 354° |
| 2026-05-01 10:56 | 53.63452 | 10.00075 | 48 ft | 12 kts | 306° |
| 2026-05-01 10:56 | 53.63485 | 9.99997 | 50 ft | 0 kts | 306° |
| 2026-05-01 10:57 | 53.63487 | 9.99992 | 49 ft | 2 kts | 306° |
| 2026-05-01 10:57 | 53.63500 | 9.99962 | 50 ft | 5 kts | 306° |
| 2026-05-01 10:57 | 53.63525 | 9.99903 | 50 ft | 7 kts | 306° |
| 2026-05-01 10:57 | 53.63528 | 9.99818 | 48 ft | 9 kts | 238° |
| 2026-05-01 10:58 | 53.63250 | 9.99253 | 53 ft | 102 kts | 230° |
| 2026-05-01 10:58 | 53.62864 | 9.98470 | 51 ft | 153 kts | 230° |
| 2026-05-01 10:58 | 53.62132 | 9.96960 | 567 ft | 168 kts | 231° |
| 2026-05-01 10:58 | 53.61386 | 9.95442 | 1436 ft | 168 kts | 231° |
| 2026-05-01 10:59 | 53.60650 | 9.93941 | 2241 ft | 164 kts | 231° |
| 2026-05-01 10:59 | 53.59929 | 9.92466 | 2843 ft | 164 kts | 231° |
| 2026-05-01 10:59 | 53.59159 | 9.90885 | 3211 ft | 185 kts | 231° |
| 2026-05-01 10:59 | 53.58303 | 9.89129 | 3570 ft | 207 kts | 231° |
| 2026-05-01 11:00 | 53.57339 | 9.87207 | 4226 ft | 218 kts | 226° |
| 2026-05-01 11:00 | 53.55992 | 9.86058 | 5038 ft | 224 kts | 185° |
| 2026-05-01 11:00 | 53.54413 | 9.86452 | 5665 ft | 242 kts | 162° |
| 2026-05-01 11:00 | 53.52739 | 9.87392 | 6254 ft | 261 kts | 161° |
| 2026-05-01 11:01 | 53.50998 | 9.88403 | 7095 ft | 268 kts | 160° |
| 2026-05-01 11:01 | 53.49232 | 9.89436 | 8004 ft | 273 kts | 160° |
| 2026-05-01 11:01 | 53.47422 | 9.90489 | 8923 ft | 277 kts | 160° |
| 2026-05-01 11:01 | 53.45589 | 9.91546 | 9815 ft | 280 kts | 160° |
| 2026-05-01 11:02 | 53.43729 | 9.92614 | 10625 ft | 287 kts | 159° |
| 2026-05-01 11:02 | 53.41764 | 9.93744 | 10966 ft | 310 kts | 159° |
| 2026-05-01 11:02 | 53.39674 | 9.94946 | 11494 ft | 323 kts | 159° |
| 2026-05-01 11:02 | 53.37529 | 9.96175 | 12211 ft | 328 kts | 159° |
| 2026-05-01 11:03 | 53.35353 | 9.97419 | 12947 ft | 332 kts | 159° |
| 2026-05-01 11:03 | 53.33150 | 9.98675 | 13677 ft | 336 kts | 159° |
| 2026-05-01 11:03 | 53.30920 | 9.99943 | 14377 ft | 341 kts | 159° |
| 2026-05-01 11:03 | 53.28693 | 10.01210 | 15052 ft | 345 kts | 159° |
| 2026-05-01 11:04 | 53.26404 | 10.02511 | 15679 ft | 350 kts | 159° |
| 2026-05-01 11:04 | 53.24083 | 10.03831 | 16332 ft | 354 kts | 159° |
| 2026-05-01 11:04 | 53.21738 | 10.05165 | 16957 ft | 357 kts | 159° |
| 2026-05-01 11:04 | 53.19367 | 10.06512 | 17578 ft | 362 kts | 159° |
| 2026-05-01 11:05 | 53.16974 | 10.07868 | 18203 ft | 365 kts | 159° |
| 2026-05-01 11:05 | 53.14551 | 10.09237 | 18811 ft | 369 kts | 159° |
| 2026-05-01 11:05 | 53.12109 | 10.10615 | 19411 ft | 372 kts | 159° |
| 2026-05-01 11:05 | 53.09643 | 10.12010 | 20003 ft | 375 kts | 159° |
| 2026-05-01 11:06 | 53.07157 | 10.13416 | 20594 ft | 379 kts | 159° |
| 2026-05-01 11:06 | 53.04652 | 10.14830 | 21166 ft | 382 kts | 159° |
| 2026-05-01 11:06 | 53.02123 | 10.16253 | 21729 ft | 385 kts | 159° |
| 2026-05-01 11:07 | 52.97038 | 10.19114 | 22770 ft | 391 kts | 159° |
| 2026-05-01 11:07 | 52.94450 | 10.20569 | 23266 ft | 394 kts | 159° |
| 2026-05-01 11:07 | 52.91841 | 10.22037 | 23782 ft | 397 kts | 159° |
| 2026-05-01 11:07 | 52.89212 | 10.23511 | 24268 ft | 401 kts | 159° |
| 2026-05-01 11:08 | 52.86554 | 10.24990 | 24750 ft | 404 kts | 159° |
| 2026-05-01 11:08 | 52.83882 | 10.26474 | 25207 ft | 406 kts | 159° |
| 2026-05-01 11:08 | 52.78485 | 10.29478 | 26058 ft | 413 kts | 159° |
| 2026-05-01 11:09 | 52.75756 | 10.30992 | 26484 ft | 415 kts | 159° |
| 2026-05-01 11:09 | 52.73006 | 10.32521 | 26894 ft | 418 kts | 159° |
| 2026-05-01 11:09 | 52.70243 | 10.34060 | 27294 ft | 421 kts | 159° |
| 2026-05-01 11:10 | 52.64652 | 10.37166 | 28073 ft | 427 kts | 159° |
| 2026-05-01 11:10 | 52.61829 | 10.38725 | 28468 ft | 429 kts | 160° |
| 2026-05-01 11:10 | 52.58987 | 10.40286 | 28856 ft | 432 kts | 160° |
| 2026-05-01 11:10 | 52.56253 | 10.41788 | 29225 ft | 435 kts | 160° |
| 2026-05-01 11:11 | 52.53262 | 10.43431 | 29384 ft | 434 kts | 160° |
| 2026-05-01 11:11 | 52.50465 | 10.44956 | 29412 ft | 419 kts | 160° |
| 2026-05-01 11:11 | 52.47742 | 10.46439 | 29411 ft | 407 kts | 160° |
| 2026-05-01 11:11 | 52.45073 | 10.47896 | 29411 ft | 402 kts | 160° |
| 2026-05-01 11:12 | 52.39815 | 10.50773 | 29414 ft | 400 kts | 159° |
| 2026-05-01 11:12 | 52.34534 | 10.53661 | 29414 ft | 400 kts | 159° |
| 2026-05-01 11:13 | 52.29245 | 10.56548 | 29412 ft | 400 kts | 160° |
| 2026-05-01 11:13 | 52.23957 | 10.59412 | 29411 ft | 400 kts | 160° |
| 2026-05-01 11:14 | 52.18676 | 10.62263 | 29406 ft | 400 kts | 159° |
| 2026-05-01 11:14 | 52.13400 | 10.65117 | 29403 ft | 400 kts | 159° |
| 2026-05-01 11:15 | 52.08111 | 10.67976 | 29402 ft | 400 kts | 160° |
| 2026-05-01 11:15 | 52.02859 | 10.70798 | 29401 ft | 400 kts | 160° |
| 2026-05-01 11:16 | 51.97572 | 10.73626 | 29402 ft | 399 kts | 159° |
| 2026-05-01 11:16 | 51.92288 | 10.76438 | 29400 ft | 400 kts | 159° |
| 2026-05-01 11:17 | 51.86996 | 10.79261 | 29401 ft | 400 kts | 159° |
| 2026-05-01 11:17 | 51.81699 | 10.82081 | 29403 ft | 401 kts | 159° |
| 2026-05-01 11:18 | 51.76396 | 10.84887 | 29409 ft | 401 kts | 159° |
| 2026-05-01 11:18 | 51.71105 | 10.87679 | 29410 ft | 401 kts | 159° |
| 2026-05-01 11:19 | 51.65887 | 10.90815 | 29412 ft | 399 kts | 151° |
| 2026-05-01 11:19 | 51.60941 | 10.94753 | 29415 ft | 399 kts | 151° |
| 2026-05-01 11:20 | 51.55951 | 10.98692 | 29412 ft | 399 kts | 151° |
| 2026-05-01 11:20 | 51.50955 | 11.02611 | 29410 ft | 399 kts | 151° |
| 2026-05-01 11:21 | 51.45965 | 11.06536 | 29414 ft | 400 kts | 151° |
| 2026-05-01 11:21 | 51.40973 | 11.10457 | 29415 ft | 400 kts | 151° |
| 2026-05-01 11:22 | 51.35969 | 11.14371 | 29413 ft | 400 kts | 151° |
| 2026-05-01 11:22 | 51.30965 | 11.18266 | 29413 ft | 399 kts | 151° |
| 2026-05-01 11:23 | 51.25993 | 11.22114 | 29413 ft | 400 kts | 151° |
| 2026-05-01 11:23 | 51.20980 | 11.26005 | 29414 ft | 401 kts | 151° |
| 2026-05-01 11:24 | 51.15962 | 11.29895 | 29419 ft | 401 kts | 151° |
| 2026-05-01 11:25 | 51.08434 | 11.35700 | 29425 ft | 401 kts | 151° |
| 2026-05-01 11:25 | 51.00897 | 11.41499 | 29415 ft | 401 kts | 151° |
| 2026-05-01 11:26 | 50.93357 | 11.47270 | 29408 ft | 401 kts | 151° |
| 2026-05-01 11:27 | 50.88325 | 11.51103 | 29406 ft | 401 kts | 151° |
| 2026-05-01 11:27 | 50.83295 | 11.54932 | 29409 ft | 402 kts | 151° |
| 2026-05-01 11:28 | 50.78296 | 11.58744 | 29410 ft | 402 kts | 151° |
| 2026-05-01 11:28 | 50.73256 | 11.62575 | 29409 ft | 402 kts | 151° |
| 2026-05-01 11:29 | 50.65688 | 11.68302 | 29412 ft | 402 kts | 151° |
| 2026-05-01 11:30 | 50.58108 | 11.73994 | 29417 ft | 402 kts | 151° |
| 2026-05-01 11:30 | 50.53057 | 11.77781 | 29417 ft | 402 kts | 151° |
| 2026-05-01 11:31 | 50.48003 | 11.81569 | 29420 ft | 402 kts | 151° |
| 2026-05-01 11:31 | 50.42923 | 11.85255 | 29424 ft | 403 kts | 153° |
| 2026-05-01 11:32 | 50.37793 | 11.88691 | 29426 ft | 403 kts | 154° |
| 2026-05-01 11:32 | 50.32623 | 11.92109 | 29428 ft | 403 kts | 153° |
| 2026-05-01 11:33 | 50.27461 | 11.95556 | 29428 ft | 403 kts | 153° |
| 2026-05-01 11:33 | 50.22309 | 11.99021 | 29425 ft | 403 kts | 153° |
| 2026-05-01 11:34 | 50.17161 | 12.02496 | 29421 ft | 403 kts | 153° |
| 2026-05-01 11:34 | 50.12017 | 12.05961 | 29420 ft | 403 kts | 153° |
| 2026-05-01 11:35 | 50.06865 | 12.09417 | 29418 ft | 403 kts | 153° |
| 2026-05-01 11:35 | 50.01715 | 12.12856 | 29415 ft | 403 kts | 153° |
| 2026-05-01 11:36 | 49.96554 | 12.16275 | 29414 ft | 403 kts | 153° |
| 2026-05-01 11:36 | 49.91427 | 12.19677 | 29413 ft | 403 kts | 153° |
| 2026-05-01 11:37 | 49.86269 | 12.23096 | 29413 ft | 403 kts | 153° |
| 2026-05-01 11:37 | 49.81106 | 12.26503 | 29410 ft | 404 kts | 153° |
| 2026-05-01 11:38 | 49.75929 | 12.29911 | 29409 ft | 404 kts | 153° |
| 2026-05-01 11:38 | 49.70961 | 12.33825 | 29405 ft | 397 kts | 140° |
| 2026-05-01 11:39 | 49.66575 | 12.38991 | 29404 ft | 396 kts | 138° |
| 2026-05-01 11:39 | 49.62203 | 12.44097 | 29398 ft | 396 kts | 138° |
| 2026-05-01 11:40 | 49.57800 | 12.49215 | 29395 ft | 396 kts | 138° |
| 2026-05-01 11:40 | 49.53396 | 12.54326 | 29395 ft | 396 kts | 138° |
| 2026-05-01 11:41 | 49.48997 | 12.59435 | 29395 ft | 396 kts | 138° |
| 2026-05-01 11:41 | 49.44576 | 12.64537 | 29397 ft | 397 kts | 138° |
| 2026-05-01 11:42 | 49.40344 | 12.69916 | 29399 ft | 399 kts | 143° |
| 2026-05-01 11:42 | 49.37846 | 12.71726 | 29397 ft | 407 kts | 158° |
| 2026-05-01 11:42 | 49.35044 | 12.72532 | 29397 ft | 415 kts | 174° |
| 2026-05-01 11:42 | 49.32148 | 12.72208 | 29395 ft | 420 kts | 190° |
| 2026-05-01 11:43 | 49.29369 | 12.70766 | 29392 ft | 423 kts | 203° |
| 2026-05-01 11:43 | 49.24013 | 12.66960 | 29388 ft | 425 kts | 203° |
| 2026-05-01 11:44 | 49.15965 | 12.61217 | 29392 ft | 426 kts | 204° |
| 2026-05-01 11:44 | 49.10592 | 12.57357 | 29130 ft | 426 kts | 203° |
| 2026-05-01 11:45 | 49.07944 | 12.55462 | 28882 ft | 425 kts | 203° |
| 2026-05-01 11:45 | 49.05271 | 12.53556 | 28632 ft | 423 kts | 203° |
| 2026-05-01 11:45 | 49.02608 | 12.51660 | 28382 ft | 422 kts | 203° |
| 2026-05-01 11:45 | 48.99961 | 12.49773 | 28136 ft | 417 kts | 203° |
| 2026-05-01 11:46 | 48.97344 | 12.47903 | 27763 ft | 415 kts | 203° |
| 2026-05-01 11:46 | 48.94741 | 12.46044 | 27385 ft | 412 kts | 203° |
| 2026-05-01 11:46 | 48.93029 | 12.44821 | 27129 ft | 411 kts | 203° |
| 2026-05-01 11:46 | 48.90440 | 12.42973 | 26729 ft | 408 kts | 203° |
| 2026-05-01 11:47 | 48.87874 | 12.41143 | 26345 ft | 406 kts | 203° |
| 2026-05-01 11:47 | 48.85324 | 12.39327 | 25951 ft | 403 kts | 203° |
| 2026-05-01 11:47 | 48.82788 | 12.37527 | 25555 ft | 401 kts | 203° |
| 2026-05-01 11:47 | 48.80266 | 12.35743 | 25151 ft | 398 kts | 202° |
| 2026-05-01 11:48 | 48.77677 | 12.34337 | 24735 ft | 393 kts | 191° |
| 2026-05-01 11:48 | 48.75037 | 12.33331 | 24327 ft | 390 kts | 191° |
| 2026-05-01 11:48 | 48.72446 | 12.32337 | 23919 ft | 388 kts | 191° |
| 2026-05-01 11:48 | 48.69833 | 12.31323 | 23498 ft | 386 kts | 191° |
| 2026-05-01 11:49 | 48.67246 | 12.30317 | 23090 ft | 383 kts | 191° |
| 2026-05-01 11:49 | 48.64661 | 12.29315 | 22653 ft | 382 kts | 191° |
| 2026-05-01 11:49 | 48.62092 | 12.28329 | 22230 ft | 379 kts | 191° |
| 2026-05-01 11:49 | 48.59538 | 12.27352 | 21813 ft | 377 kts | 191° |
| 2026-05-01 11:50 | 48.56995 | 12.26369 | 21367 ft | 377 kts | 191° |
| 2026-05-01 11:50 | 48.54462 | 12.25366 | 20908 ft | 376 kts | 192° |
| 2026-05-01 11:50 | 48.52039 | 12.23853 | 20449 ft | 379 kts | 209° |
| 2026-05-01 11:50 | 48.49991 | 12.21378 | 19992 ft | 379 kts | 227° |
| 2026-05-01 11:51 | 48.48497 | 12.18138 | 19555 ft | 375 kts | 246° |
| 2026-05-01 11:51 | 48.47680 | 12.14499 | 19137 ft | 369 kts | 263° |
| 2026-05-01 11:51 | 48.47373 | 12.10690 | 18712 ft | 365 kts | 268° |
| 2026-05-01 11:51 | 48.47099 | 12.06892 | 18282 ft | 363 kts | 267° |
| 2026-05-01 11:52 | 48.46820 | 12.03124 | 17873 ft | 361 kts | 267° |
| 2026-05-01 11:52 | 48.46539 | 11.99377 | 17455 ft | 359 kts | 267° |
| 2026-05-01 11:52 | 48.46257 | 11.95654 | 17037 ft | 357 kts | 266° |
| 2026-05-01 11:52 | 48.45975 | 11.91946 | 16621 ft | 355 kts | 266° |
| 2026-05-01 11:53 | 48.45696 | 11.88265 | 16209 ft | 352 kts | 266° |
| 2026-05-01 11:53 | 48.45417 | 11.84611 | 15799 ft | 350 kts | 266° |
| 2026-05-01 11:53 | 48.45136 | 11.80980 | 15395 ft | 347 kts | 266° |
| 2026-05-01 11:53 | 48.44856 | 11.77378 | 15000 ft | 345 kts | 266° |
| 2026-05-01 11:54 | 48.44580 | 11.73787 | 14580 ft | 344 kts | 265° |
| 2026-05-01 11:54 | 48.44311 | 11.70270 | 14179 ft | 341 kts | 265° |
| 2026-05-01 11:54 | 48.44035 | 11.66691 | 13771 ft | 339 kts | 265° |
| 2026-05-01 11:54 | 48.43764 | 11.63221 | 13376 ft | 337 kts | 265° |
| 2026-05-01 11:55 | 48.43485 | 11.59686 | 12973 ft | 335 kts | 265° |
| 2026-05-01 11:55 | 48.43215 | 11.56257 | 12578 ft | 333 kts | 265° |
| 2026-05-01 11:55 | 48.42942 | 11.52808 | 12183 ft | 331 kts | 264° |
| 2026-05-01 11:55 | 48.42671 | 11.49383 | 11791 ft | 329 kts | 264° |
| 2026-05-01 11:56 | 48.42402 | 11.45971 | 11381 ft | 327 kts | 264° |
| 2026-05-01 11:56 | 48.42134 | 11.42579 | 11003 ft | 325 kts | 264° |
| 2026-05-01 11:56 | 48.41867 | 11.39256 | 10861 ft | 315 kts | 264° |
| 2026-05-01 11:56 | 48.41604 | 11.36004 | 10457 ft | 312 kts | 264° |
| 2026-05-01 11:57 | 48.41344 | 11.32784 | 9941 ft | 309 kts | 263° |
| 2026-05-01 11:57 | 48.41081 | 11.29570 | 9493 ft | 307 kts | 263° |
| 2026-05-01 11:57 | 48.40819 | 11.26406 | 9100 ft | 303 kts | 263° |
| 2026-05-01 11:57 | 48.40563 | 11.23287 | 8726 ft | 299 kts | 263° |
| 2026-05-01 11:58 | 48.40311 | 11.20180 | 8349 ft | 299 kts | 263° |
| 2026-05-01 11:58 | 48.40058 | 11.17063 | 7985 ft | 301 kts | 262° |
| 2026-05-01 11:58 | 48.38203 | 11.11859 | 7492 ft | 282 kts | 210° |
| 2026-05-01 11:59 | 48.36417 | 11.10874 | 7264 ft | 269 kts | 182° |
| 2026-05-01 11:59 | 48.34614 | 11.11211 | 7050 ft | 258 kts | 155° |
| 2026-05-01 11:59 | 48.33155 | 11.12632 | 6856 ft | 246 kts | 131° |
| 2026-05-01 12:00 | 48.32004 | 11.17189 | 6452 ft | 236 kts | 86° |
| 2026-05-01 12:00 | 48.32169 | 11.19645 | 6248 ft | 237 kts | 84° |
| 2026-05-01 12:00 | 48.32511 | 11.24643 | 5730 ft | 236 kts | 84° |
| 2026-05-01 12:01 | 48.32671 | 11.27049 | 5650 ft | 234 kts | 85° |
| 2026-05-01 12:01 | 48.32825 | 11.29485 | 5567 ft | 234 kts | 88° |
| 2026-05-01 12:01 | 48.32803 | 11.31923 | 5511 ft | 234 kts | 90° |
| 2026-05-01 12:01 | 48.32910 | 11.34360 | 5444 ft | 233 kts | 85° |
| 2026-05-01 12:02 | 48.33100 | 11.36782 | 5370 ft | 234 kts | 83° |
| 2026-05-01 12:02 | 48.33299 | 11.39200 | 5293 ft | 233 kts | 83° |
| 2026-05-01 12:02 | 48.33495 | 11.41621 | 5223 ft | 233 kts | 84° |
| 2026-05-01 12:02 | 48.33690 | 11.44039 | 5141 ft | 234 kts | 84° |
| 2026-05-01 12:03 | 48.33884 | 11.46459 | 5039 ft | 233 kts | 84° |
| 2026-05-01 12:03 | 48.34074 | 11.48820 | 4971 ft | 221 kts | 84° |
| 2026-05-01 12:03 | 48.34255 | 11.51082 | 4801 ft | 215 kts | 84° |
| 2026-05-01 12:03 | 48.34429 | 11.53260 | 4552 ft | 211 kts | 84° |
| 2026-05-01 12:04 | 48.34603 | 11.55448 | 4261 ft | 211 kts | 83° |
| 2026-05-01 12:04 | 48.34777 | 11.57634 | 3970 ft | 206 kts | 84° |
| 2026-05-01 12:04 | 48.34942 | 11.59723 | 3702 ft | 195 kts | 83° |
| 2026-05-01 12:04 | 48.35098 | 11.61708 | 3457 ft | 187 kts | 83° |
| 2026-05-01 12:05 | 48.35246 | 11.63610 | 3234 ft | 180 kts | 84° |
| 2026-05-01 12:05 | 48.35522 | 11.67091 | 2758 ft | 155 kts | 83° |
| 2026-05-01 12:05 | 48.35641 | 11.68605 | 2562 ft | 136 kts | 84° |
| 2026-05-01 12:06 | 48.35748 | 11.69975 | 2393 ft | 129 kts | 84° |
| 2026-05-01 12:06 | 48.35851 | 11.71289 | 2226 ft | 126 kts | 84° |
| 2026-05-01 12:06 | 48.35952 | 11.72591 | 2058 ft | 125 kts | 83° |
| 2026-05-01 12:06 | 48.36053 | 11.73891 | 1893 ft | 124 kts | 83° |
| 2026-05-01 12:07 | 48.36153 | 11.75174 | 1729 ft | 123 kts | 84° |
| 2026-05-01 12:07 | 48.36251 | 11.76443 | 1570 ft | 122 kts | 84° |
| 2026-05-01 12:07 | 48.36343 | 11.77643 | 1487 ft | 104 kts | 84° |
| 2026-05-01 12:07 | 48.36402 | 11.78485 | 1475 ft | 58 kts | 83° |
| 2026-05-01 12:08 | 48.36440 | 11.78992 | 1485 ft | 39 kts | 83° |
| 2026-05-01 12:08 | 48.36441 | 11.79287 | 1485 ft | 22 kts | 105° |
| 2026-05-01 12:08 | 48.36387 | 11.79485 | 1485 ft | 12 kts | 114° |
| 2026-05-01 12:08 | 48.36352 | 11.79603 | 1485 ft | 12 kts | 114° |
| 2026-05-01 12:09 | 48.36329 | 11.79683 | 1476 ft | 6 kts | 114° |
| 2026-05-01 12:09 | 48.36309 | 11.79748 | 1478 ft | 8 kts | 114° |
| 2026-05-01 12:09 | 48.36277 | 11.79830 | 1475 ft | 10 kts | 148° |
| 2026-05-01 12:09 | 48.36200 | 11.79850 | 1478 ft | 13 kts | 175° |
| 2026-05-01 12:10 | 48.36136 | 11.79828 | 1475 ft | 11 kts | 229° |
| 2026-05-01 12:10 | 48.36115 | 11.79589 | 1485 ft | 8 kts | 264° |
| 2026-05-01 12:10 | 48.36099 | 11.79501 | 1482 ft | 9 kts | 231° |